Time;durP1;ratioP1;P1;durP2;ratioP2;P2;SDS_P1;SDS_P2;PMS_P1;PMS_P2;Temp;Humidity;BMP_temperature;BMP_pressure;BME280_temperature;BME280_humidity;BME280_pressure;Samples;Min_cycle;Max_cycle;Signal;HPM_P1;HPM_P2
2023/11/30 00:01:46;;;;;;;;;;;;;;;15.13;45.59;100618.91;4968840;28;1153;-45
2023/11/30 00:04:12;;;;;;;;;;;;;;;17.00;44.56;100617.91;4960488;28;1230;-49
2023/11/30 00:06:38;;;;;;;;;;;;;;;15.86;45.83;100625.38;4977050;28;1084;-49
2023/11/30 00:09:04;;;;;;;;;;;;;;;15.39;45.89;100626.00;4972087;28;1988;-44
2023/11/30 00:11:29;;;;;;;;;;;;;;;16.57;45.35;100629.13;4957939;28;1077;-48
2023/11/30 00:13:55;;;;;;;;;;;;;;;15.66;46.10;100630.31;4973595;28;1196;-46
2023/11/30 00:16:20;;;;;;;;;;;;;;;15.39;45.13;100631.28;4976806;28;1093;-46
2023/11/30 00:18:46;;;;;;;;;;;;;;;16.00;46.02;100635.88;4964669;28;1092;-46
2023/11/30 00:21:11;;;;;;;;;;;;;;;16.01;45.86;100634.94;4977344;28;1048;-44
2023/11/30 00:23:37;;;;;;;;;;;;;;;15.47;45.41;100630.75;4966956;28;1314;-48
2023/11/30 00:26:03;;;;;;;;;;;;;;;15.25;45.11;100642.84;4959635;28;1112;-46
2023/11/30 00:28:28;;;;;;;;;;;;;;;16.78;44.51;100647.94;4965092;28;1902;-45
2023/11/30 00:30:54;;;;;;;;;;;;;;;15.63;46.30;100643.78;4968521;28;1092;-48
2023/11/30 00:33:20;;;;;;;;;;;;;;;15.37;45.28;100649.97;4958920;28;1070;-44
2023/11/30 00:35:46;;;;;;;;;;;;;;;15.85;46.41;100650.22;4975401;28;966;-45
2023/11/30 00:38:11;;;;;;;;;;;;;;;16.01;45.57;100655.31;4963972;28;1223;-46
2023/11/30 00:40:39;;;;;;;;;;;;;;;15.41;45.66;100656.72;4969659;28;1101;-43
2023/11/30 00:43:08;;;;;;;;;;;;;;;17.08;44.45;100656.34;4972064;28;1064;-47
2023/11/30 00:45:33;;;;;;;;;;;;;;;15.74;46.16;100664.25;4968658;28;1213;-45
2023/11/30 00:47:59;;;;;;;;;;;;;;;15.48;45.32;100665.09;4961606;28;1907;-48
2023/11/30 00:50:24;;;;;;;;;;;;;;;15.96;46.11;100676.84;4965789;28;1068;-45
2023/11/30 00:52:50;;;;;;;;;;;;;;;16.40;45.14;100679.03;4974777;28;1002;-44
2023/11/30 00:55:15;;;;;;;;;;;;;;;15.54;46.10;100683.25;4975718;28;1367;-45
2023/11/30 00:57:41;;;;;;;;;;;;;;;16.48;45.56;100684.63;4962643;28;1306;-44
2023/11/30 01:00:08;;;;;;;;;;;;;;;15.75;46.08;100695.94;4973791;28;906;-46
2023/11/30 01:02:34;;;;;;;;;;;;;;;16.59;45.49;100693.63;4960933;28;1137;-49
2023/11/30 01:05:00;;;;;;;;;;;;;;;16.97;44.06;100702.31;4958808;28;1077;-43
2023/11/30 01:07:25;;;;;;;;;;;;;;;15.86;45.68;100700.50;4973874;28;1129;-45
2023/11/30 01:09:50;;;;;;;;;;;;;;;15.52;45.41;100702.88;4960720;28;1987;-48
2023/11/30 01:12:16;;;;;;;;;;;;;;;16.45;45.72;100708.75;4963569;28;1120;-45
2023/11/30 01:14:41;;;;;;;;;;;;;;;15.75;45.86;100714.53;4969123;28;1227;-47
2023/11/30 01:17:07;;;;;;;;;;;;;;;15.49;44.99;100717.19;4976727;28;1183;-45
2023/11/30 01:19:33;;;;;;;;;;;;;;;16.18;45.74;100723.09;4979716;28;1168;-45
2023/11/30 01:21:58;;;;;;;;;;;;;;;16.09;45.53;100726.38;4978444;28;1056;-47
2023/11/30 01:24:24;;;;;;;;;;;;;;;15.52;45.97;100718.78;4971996;28;885;-46
2023/11/30 01:26:49;;;;;;;;;;;;;;;15.29;45.11;100714.09;4978313;28;1060;-43
2023/11/30 01:29:15;;;;;;;;;;;;;;;16.41;45.32;100720.56;4968417;28;1952;-44
2023/11/30 01:31:41;;;;;;;;;;;;;;;15.66;45.95;100726.59;4978817;28;1092;-50
2023/11/30 01:34:06;;;;;;;;;;;;;;;15.30;45.50;100731.69;4978748;28;1221;-43
2023/11/30 01:36:32;;;;;;;;;;;;;;;16.43;45.23;100736.38;4968819;28;1136;-47
2023/11/30 01:38:57;;;;;;;;;;;;;;;15.58;45.86;100736.91;4974751;28;1239;-43
2023/11/30 01:41:23;;;;;;;;;;;;;;;15.32;44.98;100741.34;4973541;28;1120;-46
2023/11/30 01:43:48;;;;;;;;;;;;;;;15.37;46.06;100748.03;4960281;28;1152;-44
2023/11/30 01:46:14;;;;;;;;;;;;;;;16.75;44.51;100735.81;4978050;28;1184;-44
2023/11/30 01:48:40;;;;;;;;;;;;;;;15.67;45.67;100738.94;4974701;28;1980;-48
2023/11/30 01:51:07;;;;;;;;;;;;;;;15.30;45.66;100741.44;4977750;28;1188;-46
2023/11/30 01:53:32;;;;;;;;;;;;;;;15.20;44.71;100745.69;4968251;28;1219;-43
2023/11/30 01:55:58;;;;;;;;;;;;;;;16.89;44.36;100751.59;4978888;28;1092;-45
2023/11/30 01:58:24;;;;;;;;;;;;;;;15.58;45.86;100754.63;4961865;28;1232;-44
2023/11/30 02:00:49;;;;;;;;;;;;;;;15.27;45.34;100750.47;4948369;28;1121;-45
2023/11/30 02:03:15;;;;;;;;;;;;;;;17.05;44.43;100749.59;4959012;29;1269;-46
2023/11/30 02:05:40;;;;;;;;;;;;;;;15.72;46.27;100756.31;4972979;28;1150;-44
2023/11/30 02:08:06;;;;;;;;;;;;;;;15.45;45.56;100759.94;4977575;28;1902;-45
2023/11/30 02:10:31;;;;;;;;;;;;;;;15.94;46.25;100763.63;4979638;28;1065;-45
2023/11/30 02:12:57;;;;;;;;;;;;;;;16.07;45.76;100763.66;4969741;28;927;-44
2023/11/30 02:15:23;;;;;;;;;;;;;;;15.38;46.02;100760.31;4974002;28;1038;-45
2023/11/30 02:17:49;;;;;;;;;;;;;;;15.24;45.35;100755.97;4979033;28;1129;-46
2023/11/30 02:20:14;;;;;;;;;;;;;;;16.69;44.89;100761.03;4974892;28;1527;-44
2023/11/30 02:22:41;;;;;;;;;;;;;;;15.65;45.65;100770.00;4956996;28;1658;-49
2023/11/30 02:25:07;;;;;;;;;;;;;;;16.48;45.73;100774.06;4959552;28;1057;-47
2023/11/30 02:27:32;;;;;;;;;;;;;;;16.31;45.30;100778.78;4967333;28;1252;-42
2023/11/30 02:29:58;;;;;;;;;;;;;;;15.52;46.00;100774.44;4965809;28;1906;-44
2023/11/30 02:32:23;;;;;;;;;;;;;;;15.34;45.28;100772.09;4971246;28;1152;-44
2023/11/30 02:34:49;;;;;;;;;;;;;;;16.49;45.53;100773.97;4973207;28;1057;-44
2023/11/30 02:37:14;;;;;;;;;;;;;;;15.70;45.85;100769.69;4971564;28;843;-44
2023/11/30 02:39:40;;;;;;;;;;;;;;;17.20;43.98;100775.03;4974906;28;1283;-46
2023/11/30 02:42:05;;;;;;;;;;;;;;;17.17;43.74;100777.06;4978863;28;1089;-44
2023/11/30 02:44:31;;;;;;;;;;;;;;;15.97;45.65;100782.00;4978317;28;1056;-45
2023/11/30 02:46:56;;;;;;;;;;;;;;;15.69;44.86;100789.22;4945530;28;1191;-46
2023/11/30 02:49:22;;;;;;;;;;;;;;;15.44;44.55;100788.22;4958116;28;1910;-50
2023/11/30 02:51:48;;;;;;;;;;;;;;;16.10;45.99;100803.22;4953376;28;992;-49
2023/11/30 02:54:13;;;;;;;;;;;;;;;16.50;44.86;100802.22;4978268;28;1111;-46
2023/11/30 02:56:39;;;;;;;;;;;;;;;15.74;45.32;100810.97;4978401;28;1052;-43
2023/11/30 02:59:05;;;;;;;;;;;;;;;15.43;44.84;100811.22;4977335;28;1128;-46
2023/11/30 03:01:30;;;;;;;;;;;;;;;15.60;45.53;100809.25;4963514;28;1206;-47
2023/11/30 03:03:56;;;;;;;;;;;;;;;16.51;44.78;100821.66;4971381;28;1108;-48
2023/11/30 03:06:21;;;;;;;;;;;;;;;15.57;45.59;100812.09;4970411;28;1105;-44
2023/11/30 03:08:46;;;;;;;;;;;;;;;15.40;44.97;100816.75;4958875;28;1910;-47
2023/11/30 03:11:12;;;;;;;;;;;;;;;15.69;45.85;100818.38;4971539;28;1145;-45
2023/11/30 03:13:38;;;;;;;;;;;;;;;16.30;45.17;100827.50;4972520;28;1066;-44
2023/11/30 03:16:03;;;;;;;;;;;;;;;15.55;45.46;100825.47;4963185;28;1428;-49
2023/11/30 03:18:29;;;;;;;;;;;;;;;15.21;44.95;100826.88;4965131;28;1165;-46
2023/11/30 03:20:54;;;;;;;;;;;;;;;16.64;44.39;100838.41;4964584;28;1216;-41
2023/11/30 03:23:20;;;;;;;;;;;;;;;15.54;45.60;100837.03;4964972;28;1165;-45
2023/11/30 03:25:45;;;;;;;;;;;;;;;15.28;45.68;100850.22;4968842;28;1233;-45
2023/11/30 03:28:11;;;;;;;;;;;;;;;16.81;44.29;100846.97;4976203;28;1902;-48
2023/11/30 03:30:38;;;;;;;;;;;;;;;15.60;45.99;100842.88;4963662;28;1408;-49
2023/11/30 03:33:04;;;;;;;;;;;;;;;15.49;44.65;100843.59;4977325;28;1120;-46
2023/11/30 03:35:29;;;;;;;;;;;;;;;16.79;44.66;100846.22;4986519;28;1333;-46
2023/11/30 03:37:55;;;;;;;;;;;;;;;15.92;45.55;100842.47;4961446;28;1147;-45
2023/11/30 03:40:20;;;;;;;;;;;;;;;15.46;45.15;100841.16;4964082;28;1149;-44
2023/11/30 03:42:46;;;;;;;;;;;;;;;16.16;45.83;100850.56;4977246;28;1053;-44
2023/11/30 03:45:11;;;;;;;;;;;;;;;15.98;45.41;100843.88;4959010;28;1073;-45
2023/11/30 03:47:37;;;;;;;;;;;;;;;15.55;45.45;100846.69;4954174;29;1333;-46
2023/11/30 03:50:02;;;;;;;;;;;;;;;16.15;45.67;100853.31;4963463;28;1097;-45
2023/11/30 03:52:28;;;;;;;;;;;;;;;16.14;44.99;100851.63;4955073;29;1682;-44
2023/11/30 03:54:53;;;;;;;;;;;;;;;15.57;45.31;100846.56;4956931;29;1211;-50
2023/11/30 03:57:19;;;;;;;;;;;;;;;15.29;45.06;100859.03;4957681;28;1128;-48
2023/11/30 03:59:44;;;;;;;;;;;;;;;15.89;45.84;100859.47;4970082;28;1220;-45
2023/11/30 04:02:10;;;;;;;;;;;;;;;16.20;44.96;100864.47;4959531;28;1367;-45
2023/11/30 04:04:38;;;;;;;;;;;;;;;15.49;45.48;100872.75;4968085;28;1212;-43
2023/11/30 04:07:04;;;;;;;;;;;;;;;16.31;45.53;100878.81;4971072;28;1240;-42
2023/11/30 04:09:30;;;;;;;;;;;;;;;15.71;45.92;100869.53;4968309;28;1931;-47
2023/11/30 04:11:55;;;;;;;;;;;;;;;15.72;46.10;100876.53;4975893;28;1152;-47
2023/11/30 04:14:21;;;;;;;;;;;;;;;17.13;42.60;100882.81;4970540;28;858;-43
2023/11/30 04:16:46;;;;;;;;;;;;;;;15.89;45.16;100875.38;4960821;28;1113;-43
2023/11/30 04:19:11;;;;;;;;;;;;;;;15.36;44.94;100872.72;4958549;28;1144;-40
2023/11/30 04:21:37;;;;;;;;;;;;;;;15.57;45.52;100877.53;4960865;28;1282;-40
2023/11/30 04:24:03;;;;;;;;;;;;;;;16.64;44.37;100880.03;4963033;28;999;-41
2023/11/30 04:26:28;;;;;;;;;;;;;;;15.80;44.47;100883.94;4969893;28;947;-39
2023/11/30 04:28:54;;;;;;;;;;;;;;;15.37;44.44;100877.91;4976946;28;1977;-40
2023/11/30 04:31:19;;;;;;;;;;;;;;;16.81;43.56;100891.28;4977073;28;1060;-40
2023/11/30 04:33:45;;;;;;;;;;;;;;;15.72;44.93;100881.81;4975662;28;1227;-37
2023/11/30 04:36:12;;;;;;;;;;;;;;;15.42;44.50;100893.50;4964466;28;1096;-39
2023/11/30 04:38:37;;;;;;;;;;;;;;;16.96;43.92;100897.28;4959432;28;1208;-41
2023/11/30 04:41:03;;;;;;;;;;;;;;;15.90;45.11;100886.81;4972819;28;1133;-42
2023/11/30 04:43:28;;;;;;;;;;;;;;;15.55;44.95;100886.47;4979838;28;1112;-42
2023/11/30 04:45:54;;;;;;;;;;;;;;;15.29;44.57;100889.03;4979305;28;1172;-42
2023/11/30 04:48:19;;;;;;;;;;;;;;;16.89;43.66;100896.88;4978968;28;1918;-44
2023/11/30 04:50:46;;;;;;;;;;;;;;;15.69;45.50;100892.66;4968364;28;1213;-45
2023/11/30 04:53:11;;;;;;;;;;;;;;;15.54;44.11;100905.97;4961412;28;1129;-39
2023/11/30 04:55:37;;;;;;;;;;;;;;;16.29;44.70;100910.78;4970808;28;1196;-43
2023/11/30 04:58:02;;;;;;;;;;;;;;;16.00;45.22;100908.31;4967342;28;1165;-49
2023/11/30 05:00:28;;;;;;;;;;;;;;;15.38;45.14;100913.25;4969637;28;1128;-44
2023/11/30 05:02:54;;;;;;;;;;;;;;;15.20;44.52;100916.13;4960649;28;885;-48
2023/11/30 05:05:20;;;;;;;;;;;;;;;15.16;43.67;100915.47;4971959;28;1176;-49
2023/11/30 05:07:45;;;;;;;;;;;;;;;16.61;43.95;100939.56;4974825;28;1914;-51
2023/11/30 05:10:11;;;;;;;;;;;;;;;15.40;45.54;100946.63;4972441;28;1157;-44
2023/11/30 05:12:36;;;;;;;;;;;;;;;16.16;45.46;100950.59;4962512;28;1248;-43
2023/11/30 05:15:02;;;;;;;;;;;;;;;16.08;44.89;100951.09;4966941;28;905;-46
2023/11/30 05:17:28;;;;;;;;;;;;;;;15.50;45.40;100962.81;4973737;28;1052;-47
2023/11/30 05:19:53;;;;;;;;;;;;;;;15.26;44.54;100966.09;4971923;28;1092;-46
2023/11/30 05:22:19;;;;;;;;;;;;;;;14.92;45.15;100976.16;4980199;28;1029;-46
2023/11/30 05:24:44;;;;;;;;;;;;;;;16.35;44.19;100983.84;4979620;28;1085;-43
2023/11/30 05:27:10;;;;;;;;;;;;;;;15.31;45.59;100989.66;4965283;28;1059;-45
2023/11/30 05:29:35;;;;;;;;;;;;;;;16.51;43.68;100987.16;4979049;28;1894;-46
2023/11/30 05:32:01;;;;;;;;;;;;;;;16.42;43.68;100987.78;4965601;28;1112;-45
2023/11/30 05:34:26;;;;;;;;;;;;;;;16.14;44.23;100994.97;4979841;28;1080;-47
2023/11/30 05:36:52;;;;;;;;;;;;;;;17.04;42.21;100997.72;4964644;28;1001;-44
2023/11/30 05:39:17;;;;;;;;;;;;;;;16.63;43.02;101006.69;4978259;28;1580;-46
2023/11/30 05:41:43;;;;;;;;;;;;;;;16.18;43.73;101015.06;4966890;28;1430;-43
2023/11/30 05:44:08;;;;;;;;;;;;;;;16.81;42.84;101030.28;4974489;28;2810;-43
2023/11/30 05:46:34;;;;;;;;;;;;;;;17.05;42.08;101032.16;4979121;28;1100;-48
2023/11/30 05:48:59;;;;;;;;;;;;;;;16.38;43.37;101032.25;4979144;28;1910;-47
2023/11/30 05:51:26;;;;;;;;;;;;;;;16.05;44.02;101038.03;4977222;28;900;-42
2023/11/30 05:53:52;;;;;;;;;;;;;;;17.08;42.15;101039.09;4979315;28;1040;-45
2023/11/30 05:56:17;;;;;;;;;;;;;;;16.88;42.34;101051.97;4978524;28;1099;-46
2023/11/30 05:58:43;;;;;;;;;;;;;;;16.28;43.40;101053.28;4978840;28;1147;-44
2023/11/30 06:01:08;;;;;;;;;;;;;;;16.06;43.95;101042.41;4975539;28;1105;-44
2023/11/30 06:03:34;;;;;;;;;;;;;;;16.58;43.26;101048.63;4968715;28;1058;-47
2023/11/30 06:05:59;;;;;;;;;;;;;;;17.10;41.79;101046.00;4962694;28;1053;-47
2023/11/30 06:08:25;;;;;;;;;;;;;;;16.44;43.12;101048.75;4969055;28;1911;-46
2023/11/30 06:10:51;;;;;;;;;;;;;;;16.77;42.73;101052.69;4972377;28;1078;-43
2023/11/30 06:13:16;;;;;;;;;;;;;;;17.27;41.51;101062.56;4962384;28;2459;-45
2023/11/30 06:15:42;;;;;;;;;;;;;;;16.58;42.91;101063.75;4961757;28;1168;-46
2023/11/30 06:18:07;;;;;;;;;;;;;;;16.59;42.59;101071.59;4959315;28;1097;-43
2023/11/30 06:20:33;;;;;;;;;;;;;;;17.27;41.70;101075.03;4963207;28;1108;-47
2023/11/30 06:22:58;;;;;;;;;;;;;;;16.87;42.12;101075.03;4978327;28;997;-43
2023/11/30 06:25:24;;;;;;;;;;;;;;;16.47;43.51;101075.09;4977933;28;1065;-42
2023/11/30 06:27:49;;;;;;;;;;;;;;;17.60;40.81;101066.44;4959402;28;1883;-44
2023/11/30 06:30:15;;;;;;;;;;;;;;;16.68;42.72;101072.81;4975497;28;1009;-43
2023/11/30 06:32:40;;;;;;;;;;;;;;;16.28;43.75;101081.66;4978171;28;1103;-41
2023/11/30 06:35:06;;;;;;;;;;;;;;;17.55;41.21;101091.69;4977811;28;1092;-44
2023/11/30 06:37:31;;;;;;;;;;;;;;;16.89;42.24;101097.03;4976124;28;1092;-41
2023/11/30 06:39:57;;;;;;;;;;;;;;;18.02;39.35;101096.31;4960863;28;1077;-44
2023/11/30 06:42:22;;;;;;;;;;;;;;;17.85;39.82;101098.41;4968987;28;2346;-45
2023/11/30 06:44:48;;;;;;;;;;;;;;;16.73;42.58;101094.56;4960876;28;989;-45
2023/11/30 06:47:14;;;;;;;;;;;;;;;16.28;43.48;101105.53;4978293;28;1124;-42
2023/11/30 06:49:39;;;;;;;;;;;;;;;16.54;43.08;101118.88;4976480;28;1976;-43
2023/11/30 06:52:05;;;;;;;;;;;;;;;17.54;40.96;101111.25;4967717;28;1014;-48
2023/11/30 06:54:30;;;;;;;;;;;;;;;16.65;42.64;101113.69;4975300;28;1061;-46
2023/11/30 06:56:56;;;;;;;;;;;;;;;16.24;43.75;101110.19;4959100;28;1081;-46
2023/11/30 06:59:22;;;;;;;;;;;;;;;17.28;41.81;101119.28;4960903;28;1115;-45
2023/11/30 07:01:48;;;;;;;;;;;;;;;17.07;41.81;101114.44;4962977;28;1136;-43
2023/11/30 07:04:14;;;;;;;;;;;;;;;16.43;43.28;101102.81;4966122;28;1109;-47
2023/11/30 07:06:40;;;;;;;;;;;;;;;16.70;42.94;101099.25;4963506;28;1129;-49
2023/11/30 07:09:05;;;;;;;;;;;;;;;17.27;41.62;101080.38;4966149;28;1914;-48
2023/11/30 07:11:31;;;;;;;;;;;;;;;16.49;43.14;101066.06;4976289;28;1062;-45
2023/11/30 07:13:57;;;;;;;;;;;;;;;16.24;44.03;101061.56;4973895;28;2857;-48
2023/11/30 07:16:22;;;;;;;;;;;;;;;17.50;41.25;101050.28;4958487;28;1085;-44
2023/11/30 07:18:48;;;;;;;;;;;;;;;16.73;42.72;101049.41;4958454;29;1069;-47
2023/11/30 07:21:14;;;;;;;;;;;;;;;16.22;43.90;101050.19;4976405;28;1109;-45
2023/11/30 07:23:39;;;;;;;;;;;;;;;17.46;41.47;101055.94;4977463;28;1045;-42
2023/11/30 07:26:11;;;;;;;;;;;;;;;16.92;42.24;101060.56;4962049;28;1133;-42
2023/11/30 07:28:37;;;;;;;;;;;;;;;16.35;43.31;101064.34;4964691;28;1915;-49
2023/11/30 07:31:02;;;;;;;;;;;;;;;16.12;43.98;101060.56;4975960;28;1403;-44
2023/11/30 07:33:28;;;;;;;;;;;;;;;17.38;41.63;101062.66;4977610;28;1084;-48
2023/11/30 07:35:53;;;;;;;;;;;;;;;16.91;42.41;101065.03;4971794;28;1293;-45
2023/11/30 07:38:19;;;;;;;;;;;;;;;16.35;43.75;101069.66;4969052;28;1238;-48
2023/11/30 07:40:44;;;;;;;;;;;;;;;16.05;44.24;101073.38;4957989;28;1096;-50
2023/11/30 07:43:11;;;;;;;;;;;;;;;16.93;42.42;101078.22;4968323;28;1919;-49
2023/11/30 07:45:37;;;;;;;;;;;;;;;17.12;41.80;101081.31;4977014;28;1079;-52
2023/11/30 07:48:03;;;;;;;;;;;;;;;16.39;43.59;101089.75;4961828;28;1918;-52
2023/11/30 07:50:29;;;;;;;;;;;;;;;17.38;41.69;101091.09;4961870;28;1139;-46
2023/11/30 07:52:54;;;;;;;;;;;;;;;16.93;42.31;101086.19;4974632;28;1127;-49
2023/11/30 07:55:20;;;;;;;;;;;;;;;16.37;43.36;101093.44;4966759;28;1120;-43
2023/11/30 07:57:45;;;;;;;;;;;;;;;16.08;44.42;101093.56;4976894;28;1025;-46
2023/11/30 08:00:11;;;;;;;;;;;;;;;16.79;43.02;101098.63;4977031;28;1128;-49
2023/11/30 08:02:37;;;;;;;;;;;;;;;17.17;41.88;101086.31;4965516;28;1120;-49
2023/11/30 08:05:05;;;;;;;;;;;;;;;16.43;43.26;101089.53;4977144;28;1001;-52
2023/11/30 08:07:30;;;;;;;;;;;;;;;16.07;44.14;101086.53;4963646;28;1188;-46
2023/11/30 08:09:56;;;;;;;;;;;;;;;16.81;42.85;101088.75;4967043;28;1970;-50
2023/11/30 08:12:21;;;;;;;;;;;;;;;17.34;41.34;101087.78;4972596;28;1974;-49
2023/11/30 08:14:47;;;;;;;;;;;;;;;16.56;43.23;101089.56;4964471;28;1073;-51
2023/11/30 08:17:12;;;;;;;;;;;;;;;16.39;43.70;101092.41;4974253;28;1041;-50
2023/11/30 08:19:38;;;;;;;;;;;;;;;17.46;41.10;101091.38;4968758;28;1081;-52
2023/11/30 08:22:05;;;;;;;;;;;;;;;16.64;42.75;101092.53;4980617;28;930;-52
2023/11/30 08:24:30;;;;;;;;;;;;;;;16.24;43.65;101088.09;4980909;28;1041;-50
2023/11/30 08:26:56;;;;;;;;;;;;;;;16.46;43.63;101098.16;4970057;28;1176;-49
2023/11/30 08:29:21;;;;;;;;;;;;;;;17.54;41.04;101093.50;4971486;28;1910;-51
2023/11/30 08:31:47;;;;;;;;;;;;;;;16.67;42.71;101089.66;4976841;28;1172;-52
2023/11/30 08:34:12;;;;;;;;;;;;;;;16.52;43.20;101097.72;4980708;28;1057;-50
2023/11/30 08:36:38;;;;;;;;;;;;;;;17.58;41.06;101094.94;4966497;28;1087;-51
2023/11/30 08:39:03;;;;;;;;;;;;;;;16.55;42.71;101061.31;4977181;28;1094;-46
2023/11/30 08:41:30;;;;;;;;;;;;;;;16.32;43.75;101090.22;4967114;28;1164;-48
2023/11/30 08:43:55;;;;;;;;;;;;;;;17.56;41.17;101086.25;4976128;28;2657;-51
2023/11/30 08:46:21;;;;;;;;;;;;;;;16.97;42.06;101085.88;4979526;28;1120;-48
2023/11/30 08:48:46;;;;;;;;;;;;;;;16.45;43.22;101090.28;4980521;28;1907;-49
2023/11/30 08:51:13;;;;;;;;;;;;;;;16.54;43.44;101087.00;4972715;28;1075;-49
2023/11/30 08:53:39;;;;;;;;;;;;;;;17.42;41.12;101076.59;4969714;28;1076;-48
2023/11/30 08:56:05;;;;;;;;;;;;;;;16.67;42.66;101081.69;4964927;28;1136;-49
2023/11/30 08:58:31;;;;;;;;;;;;;;;16.26;43.86;101078.22;4970016;28;1148;-49
2023/11/30 09:00:56;;;;;;;;;;;;;;;16.64;43.23;101079.25;4979750;28;1093;-49
2023/11/30 09:03:22;;;;;;;;;;;;;;;17.58;41.03;101079.00;4977515;28;1157;-49
2023/11/30 09:05:48;;;;;;;;;;;;;;;16.72;42.80;101076.06;4977420;28;1014;-48
2023/11/30 09:08:14;;;;;;;;;;;;;;;16.46;43.15;101070.72;4960761;28;1911;-48
2023/11/30 09:10:39;;;;;;;;;;;;;;;17.60;41.02;101063.78;4973360;28;1129;-50
2023/11/30 09:13:07;;;;;;;;;;;;;;;16.91;42.29;101058.88;4960749;28;1956;-46
2023/11/30 09:15:33;;;;;;;;;;;;;;;16.41;43.74;101060.44;4968492;28;1085;-48
2023/11/30 09:18:01;;;;;;;;;;;;;;;16.15;44.19;101039.13;4969976;28;1097;-48
2023/11/30 09:20:26;;;;;;;;;;;;;;;15.88;44.58;101035.50;4976213;28;1140;-48
2023/11/30 09:22:53;;;;;;;;;;;;;;;15.74;44.98;101030.25;4959976;28;1053;-51
2023/11/30 09:25:18;;;;;;;;;;;;;;;15.86;45.10;101036.56;4959081;28;1153;-47
2023/11/30 09:27:44;;;;;;;;;;;;;;;17.21;41.77;101029.31;4961753;28;978;-52
2023/11/30 09:30:10;;;;;;;;;;;;;;;16.71;42.84;101039.84;4960366;28;1898;-46
2023/11/30 09:32:36;;;;;;;;;;;;;;;16.19;43.76;101029.16;4970108;28;1084;-49
2023/11/30 09:35:02;;;;;;;;;;;;;;;15.90;44.63;101022.13;4962816;28;974;-52
2023/11/30 09:37:29;;;;;;;;;;;;;;;15.97;44.70;101023.44;4961397;28;1037;-51
2023/11/30 09:39:54;;;;;;;;;;;;;;;17.31;41.72;101018.88;4968304;28;1145;-46
2023/11/30 09:42:20;;;;;;;;;;;;;;;16.65;42.76;101015.41;4978937;28;2499;-50
2023/11/30 09:44:46;;;;;;;;;;;;;;;16.61;43.13;101002.44;4972988;28;1212;-49
2023/11/30 09:47:11;;;;;;;;;;;;;;;16.25;43.72;101013.66;4969006;28;1032;-46
2023/11/30 09:49:37;;;;;;;;;;;;;;;16.14;43.88;101013.53;4963926;28;1910;-49
2023/11/30 09:52:03;;;;;;;;;;;;;;;17.34;41.64;101015.13;4959441;28;1173;-48
2023/11/30 09:54:28;;;;;;;;;;;;;;;17.18;41.62;101012.72;4975324;28;1076;-50
2023/11/30 09:56:54;;;;;;;;;;;;;;;16.64;43.12;101008.41;4979096;28;1182;-46
2023/11/30 09:59:19;;;;;;;;;;;;;;;16.44;43.67;101001.81;4965897;28;1255;-47
2023/11/30 10:01:45;;;;;;;;;;;;;;;17.20;42.04;101000.19;4970094;28;1146;-50
2023/11/30 10:04:17;;;;;;;;;;;;;;;17.10;42.05;100998.16;4968801;28;1066;-49
2023/11/30 10:06:42;;;;;;;;;;;;;;;16.40;43.59;100993.19;4969209;28;1164;-48
2023/11/30 10:09:12;;;;;;;;;;;;;;;16.13;44.41;100987.97;4975165;28;1983;-49
2023/11/30 10:11:38;;;;;;;;;;;;;;;15.84;44.87;100990.72;4978723;28;1037;-51
2023/11/30 10:14:03;;;;;;;;;;;;;;;15.97;44.92;100988.94;4965225;28;1852;-50
2023/11/30 10:16:29;;;;;;;;;;;;;;;17.28;41.77;100987.19;4976606;28;846;-50
2023/11/30 10:18:54;;;;;;;;;;;;;;;16.75;42.63;100980.22;4965917;28;1125;-49
2023/11/30 10:21:21;;;;;;;;;;;;;;;16.20;44.05;100991.88;4977277;28;1101;-51
2023/11/30 10:23:46;;;;;;;;;;;;;;;15.98;44.60;100989.81;4975141;28;1084;-48
2023/11/30 10:26:13;;;;;;;;;;;;;;;16.97;42.76;100981.34;4968415;28;1064;-49
2023/11/30 10:28:39;;;;;;;;;;;;;;;16.95;42.23;100983.31;4965312;28;1903;-51
2023/11/30 10:31:04;;;;;;;;;;;;;;;16.36;44.00;100981.09;4958140;28;1045;-48
2023/11/30 10:33:30;;;;;;;;;;;;;;;16.07;44.50;100981.25;4975441;28;1188;-51
2023/11/30 10:36:00;;;;;;;;;;;;;;;16.16;44.39;100991.25;4967515;28;1154;-50
2023/11/30 10:38:31;;;;;;;;;;;;;;;17.35;41.85;100984.94;4970379;28;1264;-50
2023/11/30 10:41:04;;;;;;;;;;;;;;;16.57;43.18;100982.34;4961752;28;1010;-51
2023/11/30 10:43:30;;;;;;;;;;;;;;;16.16;44.10;100979.78;4963669;28;2446;-50
2023/11/30 10:45:55;;;;;;;;;;;;;;;15.93;45.02;100973.34;4965086;28;1029;-50
2023/11/30 10:48:22;;;;;;;;;;;;;;;15.71;45.44;100972.09;4963316;28;1906;-48
2023/11/30 10:50:48;;;;;;;;;;;;;;;16.05;44.75;100974.38;4978120;28;1048;-48
2023/11/30 10:53:19;;;;;;;;;;;;;;;17.29;41.97;100980.03;4965777;28;1025;-51
2023/11/30 10:55:45;;;;;;;;;;;;;;;16.54;43.16;100967.50;4976297;28;1147;-52
2023/11/30 10:58:11;;;;;;;;;;;;;;;16.05;44.25;100964.56;4972133;28;1065;-51
2023/11/30 11:00:39;;;;;;;;;;;;;;;16.45;43.72;100965.47;4958586;28;1053;-50
2023/11/30 11:03:07;;;;;;;;;;;;;;;17.36;41.83;100957.38;4970097;28;1110;-51
2023/11/30 11:05:34;;;;;;;;;;;;;;;16.49;43.50;100954.53;4974648;28;921;-49
2023/11/30 11:07:59;;;;;;;;;;;;;;;16.06;44.31;100953.03;4977378;28;1902;-48
2023/11/30 11:10:28;;;;;;;;;;;;;;;15.89;44.96;100957.63;4976201;28;1029;-51
2023/11/30 11:12:58;;;;;;;;;;;;;;;16.00;44.74;100942.81;4947707;28;1948;-46
2023/11/30 11:15:24;;;;;;;;;;;;;;;17.24;42.12;100945.81;4971440;28;942;-49
2023/11/30 11:17:53;;;;;;;;;;;;;;;16.47;43.57;100937.00;4968978;28;838;-52
2023/11/30 11:20:22;;;;;;;;;;;;;;;16.06;44.52;100941.56;4957902;28;1053;-50
2023/11/30 11:22:48;;;;;;;;;;;;;;;16.20;44.57;100948.59;4966535;28;1052;-48
2023/11/30 11:25:14;;;;;;;;;;;;;;;17.43;41.52;100953.31;4964168;28;1125;-48
2023/11/30 11:27:40;;;;;;;;;;;;;;;16.63;42.91;100958.03;4976748;28;1004;-49
2023/11/30 11:30:07;;;;;;;;;;;;;;;16.16;44.03;100945.28;4970867;28;1989;-49
2023/11/30 11:32:33;;;;;;;;;;;;;;;15.92;45.06;100940.63;4977061;28;1076;-47
2023/11/30 11:34:58;;;;;;;;;;;;;;;16.83;43.01;100938.00;4975549;28;1045;-49
2023/11/30 11:37:24;;;;;;;;;;;;;;;16.95;42.23;100932.81;4966195;28;1013;-50
2023/11/30 11:39:52;;;;;;;;;;;;;;;16.27;43.84;100928.63;4962678;28;1117;-46
2023/11/30 11:42:19;;;;;;;;;;;;;;;15.97;44.72;100927.91;4958109;28;1148;-51
2023/11/30 11:44:44;;;;;;;;;;;;;;;15.74;44.91;100930.31;4970954;28;1002;-50
2023/11/30 11:47:13;;;;;;;;;;;;;;;15.60;45.20;100935.69;4957558;28;1141;-49
2023/11/30 11:49:38;;;;;;;;;;;;;;;16.70;43.30;100932.72;4972654;28;1964;-52
2023/11/30 11:52:04;;;;;;;;;;;;;;;17.33;41.68;100928.34;4974880;28;1069;-51
2023/11/30 11:54:30;;;;;;;;;;;;;;;16.49;43.54;100933.28;4972700;28;1084;-48
2023/11/30 11:56:56;;;;;;;;;;;;;;;16.03;44.40;100932.84;4977132;28;1029;-53
2023/11/30 11:59:22;;;;;;;;;;;;;;;15.82;44.71;100932.44;4974301;28;1033;-49
2023/11/30 12:01:49;;;;;;;;;;;;;;;15.63;45.27;100928.38;4966507;28;1022;-51
2023/11/30 12:04:24;;;;;;;;;;;;;;;16.77;43.15;100934.00;4961585;28;1200;-50
2023/11/30 12:06:49;;;;;;;;;;;;;;;16.85;42.46;100937.94;4967696;28;1041;-48
2023/11/30 12:09:15;;;;;;;;;;;;;;;16.18;44.25;100927.47;4963838;28;1918;-50
2023/11/30 12:11:41;;;;;;;;;;;;;;;15.86;44.58;100923.34;4967210;28;1121;-50
2023/11/30 12:14:06;;;;;;;;;;;;;;;16.50;43.56;100907.56;4960750;28;2353;-50
2023/11/30 12:16:34;;;;;;;;;;;;;;;17.01;42.32;100909.31;4970580;28;1132;-50
2023/11/30 12:19:00;;;;;;;;;;;;;;;16.26;43.89;100916.31;4976591;28;1076;-48
2023/11/30 12:21:25;;;;;;;;;;;;;;;15.86;44.91;100920.69;4977095;28;1104;-48
2023/11/30 12:23:51;;;;;;;;;;;;;;;15.72;45.45;100928.72;4960481;28;1009;-47
2023/11/30 12:26:16;;;;;;;;;;;;;;;16.07;44.48;100927.31;4967008;28;995;-47
2023/11/30 12:28:42;;;;;;;;;;;;;;;17.32;41.78;100934.59;4974340;28;1906;-48
2023/11/30 12:31:07;;;;;;;;;;;;;;;16.52;43.21;100933.06;4967105;28;1101;-46
2023/11/30 12:33:33;;;;;;;;;;;;;;;16.06;44.53;100923.84;4960886;28;1136;-51
2023/11/30 12:35:58;;;;;;;;;;;;;;;15.85;45.12;100928.75;4976253;28;1025;-49
2023/11/30 12:38:25;;;;;;;;;;;;;;;16.79;43.05;100923.25;4976272;28;1124;-49
2023/11/30 12:40:51;;;;;;;;;;;;;;;17.05;42.34;100927.69;4972250;28;1056;-51